sensor_id;sensor_type;location;lat;lon;timestamp;temperature;humidity
20384;DHT22;46458;50.966;7.002;2022-07-23T00:01:23;20.60;99.90
20384;DHT22;46458;50.966;7.002;2022-07-23T00:03:50;20.60;99.90
20384;DHT22;46458;50.966;7.002;2022-07-23T00:06:17;20.50;99.90
20384;DHT22;46458;50.966;7.002;2022-07-23T00:08:42;20.50;99.90
20384;DHT22;46458;50.966;7.002;2022-07-23T00:11:08;20.50;99.90
20384;DHT22;46458;50.966;7.002;2022-07-23T00:13:34;20.40;99.90
20384;DHT22;46458;50.966;7.002;2022-07-23T00:15:59;20.40;99.90
20384;DHT22;46458;50.966;7.002;2022-07-23T00:18:27;20.40;99.90
20384;DHT22;46458;50.966;7.002;2022-07-23T00:20:53;20.40;99.90
20384;DHT22;46458;50.966;7.002;2022-07-23T00:23:19;20.30;99.90
20384;DHT22;46458;50.966;7.002;2022-07-23T00:25:44;20.20;99.90
20384;DHT22;46458;50.966;7.002;2022-07-23T00:28:13;20.20;99.90
20384;DHT22;46458;50.966;7.002;2022-07-23T00:30:39;20.20;99.90
20384;DHT22;46458;50.966;7.002;2022-07-23T00:33:06;20.10;99.90
20384;DHT22;46458;50.966;7.002;2022-07-23T00:35:37;20.10;99.90
20384;DHT22;46458;50.966;7.002;2022-07-23T00:38:04;20.10;99.90
20384;DHT22;46458;50.966;7.002;2022-07-23T00:40:30;20.40;99.90
20384;DHT22;46458;50.966;7.002;2022-07-23T00:42:56;20.00;99.90
20384;DHT22;46458;50.966;7.002;2022-07-23T00:45:22;20.00;99.90
20384;DHT22;46458;50.966;7.002;2022-07-23T00:47:47;19.90;99.90
20384;DHT22;46458;50.966;7.002;2022-07-23T00:50:13;19.90;99.90
20384;DHT22;46458;50.966;7.002;2022-07-23T00:52:39;19.80;99.90
20384;DHT22;46458;50.966;7.002;2022-07-23T00:55:06;19.80;99.90
20384;DHT22;46458;50.966;7.002;2022-07-23T00:57:32;19.80;99.90
20384;DHT22;46458;50.966;7.002;2022-07-23T00:59:58;19.70;99.90
20384;DHT22;46458;50.966;7.002;2022-07-23T01:02:25;19.70;99.90
20384;DHT22;46458;50.966;7.002;2022-07-23T01:04:51;19.80;99.90
20384;DHT22;46458;50.966;7.002;2022-07-23T01:07:18;19.70;99.90
20384;DHT22;46458;50.966;7.002;2022-07-23T01:09:45;19.90;99.90
20384;DHT22;46458;50.966;7.002;2022-07-23T01:12:11;19.60;99.90
20384;DHT22;46458;50.966;7.002;2022-07-23T01:14:36;19.60;99.90
20384;DHT22;46458;50.966;7.002;2022-07-23T01:17:02;19.60;99.90
20384;DHT22;46458;50.966;7.002;2022-07-23T01:19:28;19.50;99.90
20384;DHT22;46458;50.966;7.002;2022-07-23T01:21:55;19.50;99.90
20384;DHT22;46458;50.966;7.002;2022-07-23T01:24:22;19.50;99.90
20384;DHT22;46458;50.966;7.002;2022-07-23T01:26:49;19.50;99.90
20384;DHT22;46458;50.966;7.002;2022-07-23T01:29:18;19.40;99.90
20384;DHT22;46458;50.966;7.002;2022-07-23T01:31:46;19.40;99.90
20384;DHT22;46458;50.966;7.002;2022-07-23T01:34:12;19.30;99.90
20384;DHT22;46458;50.966;7.002;2022-07-23T01:36:41;19.30;99.90
20384;DHT22;46458;50.966;7.002;2022-07-23T01:39:07;19.30;99.90
20384;DHT22;46458;50.966;7.002;2022-07-23T01:41:33;19.30;99.90
20384;DHT22;46458;50.966;7.002;2022-07-23T01:43:59;19.30;99.90
20384;DHT22;46458;50.966;7.002;2022-07-23T01:46:25;19.30;99.90
20384;DHT22;46458;50.966;7.002;2022-07-23T01:48:50;19.30;99.90
20384;DHT22;46458;50.966;7.002;2022-07-23T01:51:16;19.30;99.90
20384;DHT22;46458;50.966;7.002;2022-07-23T01:53:42;19.30;99.90
20384;DHT22;46458;50.966;7.002;2022-07-23T01:56:07;19.20;99.90
20384;DHT22;46458;50.966;7.002;2022-07-23T01:58:33;19.20;99.90
20384;DHT22;46458;50.966;7.002;2022-07-23T02:00:58;19.20;99.90
20384;DHT22;46458;50.966;7.002;2022-07-23T02:03:25;19.20;99.90
20384;DHT22;46458;50.966;7.002;2022-07-23T02:05:50;19.20;99.90
20384;DHT22;46458;50.966;7.002;2022-07-23T02:08:16;19.10;99.90
20384;DHT22;46458;50.966;7.002;2022-07-23T02:10:45;19.10;99.90
20384;DHT22;46458;50.966;7.002;2022-07-23T02:13:11;19.10;99.90
20384;DHT22;46458;50.966;7.002;2022-07-23T02:15:36;19.10;99.90
20384;DHT22;46458;50.966;7.002;2022-07-23T02:18:02;19.00;99.90
20384;DHT22;46458;50.966;7.002;2022-07-23T02:20:28;19.10;99.90
20384;DHT22;46458;50.966;7.002;2022-07-23T02:22:54;19.00;99.90
20384;DHT22;46458;50.966;7.002;2022-07-23T02:25:19;19.00;99.90
20384;DHT22;46458;50.966;7.002;2022-07-23T02:27:45;19.00;99.90
20384;DHT22;46458;50.966;7.002;2022-07-23T02:30:11;19.00;99.90
20384;DHT22;46458;50.966;7.002;2022-07-23T02:32:37;19.00;99.90
20384;DHT22;46458;50.966;7.002;2022-07-23T02:35:06;19.00;99.90
20384;DHT22;46458;50.966;7.002;2022-07-23T02:37:35;18.90;99.90
20384;DHT22;46458;50.966;7.002;2022-07-23T02:40:00;18.90;99.90
20384;DHT22;46458;50.966;7.002;2022-07-23T02:42:26;18.90;99.90
20384;DHT22;46458;50.966;7.002;2022-07-23T02:44:52;18.90;99.90
20384;DHT22;46458;50.966;7.002;2022-07-23T02:47:17;18.80;99.90
20384;DHT22;46458;50.966;7.002;2022-07-23T02:49:43;18.90;99.90
20384;DHT22;46458;50.966;7.002;2022-07-23T02:52:08;18.90;99.90
20384;DHT22;46458;50.966;7.002;2022-07-23T02:54:36;18.90;99.90
20384;DHT22;46458;50.966;7.002;2022-07-23T02:57:02;18.90;99.90
20384;DHT22;46458;50.966;7.002;2022-07-23T02:59:30;18.90;99.90
20384;DHT22;46458;50.966;7.002;2022-07-23T03:01:56;18.80;99.90
20384;DHT22;46458;50.966;7.002;2022-07-23T03:04:21;18.80;99.90
20384;DHT22;46458;50.966;7.002;2022-07-23T03:06:47;18.70;99.90
20384;DHT22;46458;50.966;7.002;2022-07-23T03:09:13;18.80;99.90
20384;DHT22;46458;50.966;7.002;2022-07-23T03:11:38;18.70;99.90
20384;DHT22;46458;50.966;7.002;2022-07-23T03:14:04;18.70;99.90
20384;DHT22;46458;50.966;7.002;2022-07-23T03:16:29;18.70;99.90
20384;DHT22;46458;50.966;7.002;2022-07-23T03:18:58;18.60;99.90
20384;DHT22;46458;50.966;7.002;2022-07-23T03:21:23;19.80;99.90
20384;DHT22;46458;50.966;7.002;2022-07-23T03:23:49;18.60;99.90
20384;DHT22;46458;50.966;7.002;2022-07-23T03:28:40;18.60;99.90
20384;DHT22;46458;50.966;7.002;2022-07-23T03:31:09;18.60;99.90
20384;DHT22;46458;50.966;7.002;2022-07-23T03:33:34;18.60;99.90
20384;DHT22;46458;50.966;7.002;2022-07-23T03:36:00;18.60;99.90
20384;DHT22;46458;50.966;7.002;2022-07-23T03:38:25;18.60;99.90
20384;DHT22;46458;50.966;7.002;2022-07-23T03:40:51;18.60;99.90
20384;DHT22;46458;50.966;7.002;2022-07-23T03:43:17;18.60;99.90
20384;DHT22;46458;50.966;7.002;2022-07-23T03:45:42;18.60;99.90
20384;DHT22;46458;50.966;7.002;2022-07-23T03:48:08;18.60;99.90
20384;DHT22;46458;50.966;7.002;2022-07-23T03:50:33;18.60;99.90
20384;DHT22;46458;50.966;7.002;2022-07-23T03:53:00;18.50;99.90
20384;DHT22;46458;50.966;7.002;2022-07-23T03:55:28;18.60;99.90
20384;DHT22;46458;50.966;7.002;2022-07-23T03:57:54;18.50;99.90
20384;DHT22;46458;50.966;7.002;2022-07-23T04:00:19;18.50;99.90
20384;DHT22;46458;50.966;7.002;2022-07-23T04:02:48;18.60;99.90
20384;DHT22;46458;50.966;7.002;2022-07-23T04:05:13;18.30;99.90
20384;DHT22;46458;50.966;7.002;2022-07-23T04:07:39;18.50;99.90
20384;DHT22;46458;50.966;7.002;2022-07-23T04:10:05;18.60;99.90
20384;DHT22;46458;50.966;7.002;2022-07-23T04:12:31;18.50;99.90
20384;DHT22;46458;50.966;7.002;2022-07-23T04:14:57;18.50;99.90
20384;DHT22;46458;50.966;7.002;2022-07-23T04:17:22;18.40;99.90
20384;DHT22;46458;50.966;7.002;2022-07-23T04:19:48;18.50;99.90
20384;DHT22;46458;50.966;7.002;2022-07-23T04:22:14;18.50;99.90
20384;DHT22;46458;50.966;7.002;2022-07-23T04:24:39;18.60;99.90
20384;DHT22;46458;50.966;7.002;2022-07-23T04:27:05;18.50;99.90
20384;DHT22;46458;50.966;7.002;2022-07-23T04:29:31;18.50;99.90
20384;DHT22;46458;50.966;7.002;2022-07-23T04:31:56;18.50;99.90
20384;DHT22;46458;50.966;7.002;2022-07-23T04:34:22;18.40;99.90
20384;DHT22;46458;50.966;7.002;2022-07-23T04:36:48;18.40;99.90
20384;DHT22;46458;50.966;7.002;2022-07-23T04:39:14;18.50;99.90
20384;DHT22;46458;50.966;7.002;2022-07-23T04:41:42;18.50;99.90
20384;DHT22;46458;50.966;7.002;2022-07-23T04:44:08;18.50;99.90
20384;DHT22;46458;50.966;7.002;2022-07-23T04:46:33;18.50;99.90
20384;DHT22;46458;50.966;7.002;2022-07-23T04:48:59;18.50;99.90
20384;DHT22;46458;50.966;7.002;2022-07-23T04:51:27;18.50;99.90
20384;DHT22;46458;50.966;7.002;2022-07-23T04:53:54;18.60;99.90
20384;DHT22;46458;50.966;7.002;2022-07-23T04:56:20;18.50;99.90
20384;DHT22;46458;50.966;7.002;2022-07-23T04:58:48;18.50;99.90
20384;DHT22;46458;50.966;7.002;2022-07-23T05:01:14;18.50;99.90
20384;DHT22;46458;50.966;7.002;2022-07-23T05:03:39;18.40;99.90
20384;DHT22;46458;50.966;7.002;2022-07-23T05:06:05;18.50;99.90
20384;DHT22;46458;50.966;7.002;2022-07-23T05:08:31;18.40;99.90
20384;DHT22;46458;50.966;7.002;2022-07-23T05:10:56;19.70;99.90
20384;DHT22;46458;50.966;7.002;2022-07-23T05:13:22;18.40;99.90
20384;DHT22;46458;50.966;7.002;2022-07-23T05:15:48;18.50;99.90
20384;DHT22;46458;50.966;7.002;2022-07-23T05:18:13;18.50;99.90
20384;DHT22;46458;50.966;7.002;2022-07-23T05:20:39;18.50;99.90
20384;DHT22;46458;50.966;7.002;2022-07-23T05:23:07;18.50;99.90
20384;DHT22;46458;50.966;7.002;2022-07-23T05:25:33;18.60;99.90
20384;DHT22;46458;50.966;7.002;2022-07-23T05:27:59;18.50;99.90
20384;DHT22;46458;50.966;7.002;2022-07-23T05:30:24;18.50;99.90
20384;DHT22;46458;50.966;7.002;2022-07-23T05:32:50;18.50;99.90
20384;DHT22;46458;50.966;7.002;2022-07-23T05:35:16;18.60;99.90
20384;DHT22;46458;50.966;7.002;2022-07-23T05:37:42;18.60;99.90
20384;DHT22;46458;50.966;7.002;2022-07-23T05:40:09;18.60;99.90
20384;DHT22;46458;50.966;7.002;2022-07-23T05:42:39;18.70;99.90
20384;DHT22;46458;50.966;7.002;2022-07-23T05:45:06;18.60;99.90
20384;DHT22;46458;50.966;7.002;2022-07-23T05:47:48;18.70;99.90
20384;DHT22;46458;50.966;7.002;2022-07-23T05:50:14;18.60;99.90
20384;DHT22;46458;50.966;7.002;2022-07-23T05:52:40;18.70;99.90
20384;DHT22;46458;50.966;7.002;2022-07-23T05:55:07;18.70;99.90
20384;DHT22;46458;50.966;7.002;2022-07-23T05:57:34;18.80;99.90
20384;DHT22;46458;50.966;7.002;2022-07-23T06:00:00;18.90;99.90
20384;DHT22;46458;50.966;7.002;2022-07-23T06:02:28;18.90;99.90
20384;DHT22;46458;50.966;7.002;2022-07-23T06:04:54;19.00;99.90
20384;DHT22;46458;50.966;7.002;2022-07-23T06:07:19;19.00;99.90
20384;DHT22;46458;50.966;7.002;2022-07-23T06:09:45;19.00;99.90
20384;DHT22;46458;50.966;7.002;2022-07-23T06:12:15;19.00;99.90
20384;DHT22;46458;50.966;7.002;2022-07-23T06:14:41;19.10;99.90
20384;DHT22;46458;50.966;7.002;2022-07-23T06:17:06;19.10;99.90
20384;DHT22;46458;50.966;7.002;2022-07-23T06:19:32;19.10;99.90
20384;DHT22;46458;50.966;7.002;2022-07-23T06:21:58;19.10;99.90
20384;DHT22;46458;50.966;7.002;2022-07-23T06:24:23;19.20;99.90
20384;DHT22;46458;50.966;7.002;2022-07-23T06:26:49;19.20;99.90
20384;DHT22;46458;50.966;7.002;2022-07-23T06:29:14;19.30;99.90
20384;DHT22;46458;50.966;7.002;2022-07-23T06:31:40;19.30;99.90
20384;DHT22;46458;50.966;7.002;2022-07-23T06:34:05;19.40;99.90
20384;DHT22;46458;50.966;7.002;2022-07-23T06:36:31;19.40;99.90
20384;DHT22;46458;50.966;7.002;2022-07-23T06:38:57;19.50;99.90
20384;DHT22;46458;50.966;7.002;2022-07-23T06:41:22;19.50;99.90
20384;DHT22;46458;50.966;7.002;2022-07-23T06:43:48;19.50;99.90
20384;DHT22;46458;50.966;7.002;2022-07-23T06:46:14;19.50;99.90
20384;DHT22;46458;50.966;7.002;2022-07-23T06:48:39;19.60;99.90
20384;DHT22;46458;50.966;7.002;2022-07-23T06:51:05;19.60;99.90
20384;DHT22;46458;50.966;7.002;2022-07-23T06:53:31;19.70;99.90
20384;DHT22;46458;50.966;7.002;2022-07-23T06:55:56;19.70;99.90
20384;DHT22;46458;50.966;7.002;2022-07-23T06:58:22;19.70;99.90
20384;DHT22;46458;50.966;7.002;2022-07-23T07:00:47;19.70;99.90
20384;DHT22;46458;50.966;7.002;2022-07-23T07:03:13;19.80;99.90
20384;DHT22;46458;50.966;7.002;2022-07-23T07:05:39;19.80;99.90
20384;DHT22;46458;50.966;7.002;2022-07-23T07:08:07;19.80;99.90
20384;DHT22;46458;50.966;7.002;2022-07-23T07:10:33;19.90;99.90
20384;DHT22;46458;50.966;7.002;2022-07-23T07:12:58;19.80;99.90
20384;DHT22;46458;50.966;7.002;2022-07-23T07:15:24;19.80;99.90
20384;DHT22;46458;50.966;7.002;2022-07-23T07:17:49;19.90;99.90
20384;DHT22;46458;50.966;7.002;2022-07-23T07:20:15;20.10;99.90
20384;DHT22;46458;50.966;7.002;2022-07-23T07:22:41;20.00;99.90
20384;DHT22;46458;50.966;7.002;2022-07-23T07:25:07;20.20;99.90
20384;DHT22;46458;50.966;7.002;2022-07-23T07:27:32;20.30;99.90
20384;DHT22;46458;50.966;7.002;2022-07-23T07:29:58;20.30;99.90
20384;DHT22;46458;50.966;7.002;2022-07-23T07:32:24;20.40;99.90
20384;DHT22;46458;50.966;7.002;2022-07-23T07:34:49;20.50;99.90
20384;DHT22;46458;50.966;7.002;2022-07-23T07:37:15;20.40;99.90
20384;DHT22;46458;50.966;7.002;2022-07-23T07:39:40;20.40;99.90
20384;DHT22;46458;50.966;7.002;2022-07-23T07:42:06;20.50;99.90
20384;DHT22;46458;50.966;7.002;2022-07-23T07:44:31;20.60;99.90
20384;DHT22;46458;50.966;7.002;2022-07-23T07:46:57;20.60;99.90
20384;DHT22;46458;50.966;7.002;2022-07-23T07:49:23;20.50;99.90
20384;DHT22;46458;50.966;7.002;2022-07-23T07:51:49;20.60;99.90
20384;DHT22;46458;50.966;7.002;2022-07-23T07:54:14;20.60;99.90
20384;DHT22;46458;50.966;7.002;2022-07-23T07:56:40;20.50;99.90
20384;DHT22;46458;50.966;7.002;2022-07-23T07:59:06;20.50;99.90
20384;DHT22;46458;50.966;7.002;2022-07-23T08:01:31;20.60;99.90
20384;DHT22;46458;50.966;7.002;2022-07-23T08:03:57;20.60;99.90
20384;DHT22;46458;50.966;7.002;2022-07-23T08:06:23;20.60;99.90
20384;DHT22;46458;50.966;7.002;2022-07-23T08:08:48;20.60;99.90
20384;DHT22;46458;50.966;7.002;2022-07-23T08:11:17;20.70;99.90
20384;DHT22;46458;50.966;7.002;2022-07-23T08:13:42;20.90;99.90
20384;DHT22;46458;50.966;7.002;2022-07-23T08:16:10;21.10;99.90
20384;DHT22;46458;50.966;7.002;2022-07-23T08:18:35;21.10;99.90
20384;DHT22;46458;50.966;7.002;2022-07-23T08:21:01;21.30;99.90
20384;DHT22;46458;50.966;7.002;2022-07-23T08:23:27;21.40;99.90
20384;DHT22;46458;50.966;7.002;2022-07-23T08:25:53;21.50;99.90
20384;DHT22;46458;50.966;7.002;2022-07-23T08:28:18;21.60;99.90
20384;DHT22;46458;50.966;7.002;2022-07-23T08:30:44;21.60;99.90
20384;DHT22;46458;50.966;7.002;2022-07-23T08:33:12;21.70;99.90
20384;DHT22;46458;50.966;7.002;2022-07-23T08:35:44;21.80;99.90
20384;DHT22;46458;50.966;7.002;2022-07-23T08:38:13;21.90;99.90
20384;DHT22;46458;50.966;7.002;2022-07-23T08:40:41;22.00;99.90
20384;DHT22;46458;50.966;7.002;2022-07-23T08:43:13;22.10;99.90
20384;DHT22;46458;50.966;7.002;2022-07-23T08:45:41;22.30;99.90
20384;DHT22;46458;50.966;7.002;2022-07-23T08:48:12;22.40;99.90
20384;DHT22;46458;50.966;7.002;2022-07-23T08:50:37;22.50;99.90
20384;DHT22;46458;50.966;7.002;2022-07-23T08:53:08;22.70;99.90
20384;DHT22;46458;50.966;7.002;2022-07-23T08:55:36;22.90;99.90
20384;DHT22;46458;50.966;7.002;2022-07-23T08:58:02;23.10;99.90
20384;DHT22;46458;50.966;7.002;2022-07-23T09:00:28;23.50;99.90
20384;DHT22;46458;50.966;7.002;2022-07-23T09:02:54;23.60;99.90
20384;DHT22;46458;50.966;7.002;2022-07-23T09:05:20;23.90;99.90
20384;DHT22;46458;50.966;7.002;2022-07-23T09:10:29;24.70;99.90
20384;DHT22;46458;50.966;7.002;2022-07-23T09:12:54;25.60;99.90
20384;DHT22;46458;50.966;7.002;2022-07-23T09:15:20;25.60;99.90
20384;DHT22;46458;50.966;7.002;2022-07-23T09:17:46;25.40;99.90
20384;DHT22;46458;50.966;7.002;2022-07-23T09:20:14;25.50;99.90
20384;DHT22;46458;50.966;7.002;2022-07-23T09:22:45;26.50;99.90
20384;DHT22;46458;50.966;7.002;2022-07-23T09:25:16;26.90;99.90
20384;DHT22;46458;50.966;7.002;2022-07-23T09:27:59;27.20;99.90
20384;DHT22;46458;50.966;7.002;2022-07-23T09:30:30;27.20;99.90
20384;DHT22;46458;50.966;7.002;2022-07-23T09:33:11;26.90;99.90
20384;DHT22;46458;50.966;7.002;2022-07-23T09:35:54;26.70;99.90
20384;DHT22;46458;50.966;7.002;2022-07-23T09:38:23;26.70;99.90
20384;DHT22;46458;50.966;7.002;2022-07-23T09:43:32;26.80;99.90
20384;DHT22;46458;50.966;7.002;2022-07-23T09:46:37;26.90;99.90
20384;DHT22;46458;50.966;7.002;2022-07-23T09:49:21;26.80;99.90
20384;DHT22;46458;50.966;7.002;2022-07-23T09:51:59;26.90;99.90
20384;DHT22;46458;50.966;7.002;2022-07-23T09:54:34;26.90;99.90
20384;DHT22;46458;50.966;7.002;2022-07-23T09:59:30;27.10;99.90
20384;DHT22;46458;50.966;7.002;2022-07-23T10:01:58;27.40;99.90
20384;DHT22;46458;50.966;7.002;2022-07-23T10:04:27;27.60;99.90
20384;DHT22;46458;50.966;7.002;2022-07-23T10:06:55;27.60;99.90
20384;DHT22;46458;50.966;7.002;2022-07-23T10:09:33;27.70;99.90
20384;DHT22;46458;50.966;7.002;2022-07-23T10:12:01;27.80;99.90
20384;DHT22;46458;50.966;7.002;2022-07-23T10:14:30;27.80;99.90
20384;DHT22;46458;50.966;7.002;2022-07-23T10:16:58;28.00;99.90
20384;DHT22;46458;50.966;7.002;2022-07-23T10:19:24;28.20;99.90
20384;DHT22;46458;50.966;7.002;2022-07-23T10:22:04;28.30;99.90
20384;DHT22;46458;50.966;7.002;2022-07-23T10:35:34;29.10;99.90
20384;DHT22;46458;50.966;7.002;2022-07-23T10:38:10;28.30;99.90
20384;DHT22;46458;50.966;7.002;2022-07-23T10:40:37;27.90;99.90
20384;DHT22;46458;50.966;7.002;2022-07-23T10:43:13;27.90;99.90
20384;DHT22;46458;50.966;7.002;2022-07-23T10:45:43;28.40;99.90
20384;DHT22;46458;50.966;7.002;2022-07-23T10:48:20;28.40;99.90
20384;DHT22;46458;50.966;7.002;2022-07-23T10:51:07;28.10;99.90
20384;DHT22;46458;50.966;7.002;2022-07-23T10:59:20;27.10;99.90
20384;DHT22;46458;50.966;7.002;2022-07-23T11:01:46;27.50;99.90
20384;DHT22;46458;50.966;7.002;2022-07-23T11:04:11;28.80;99.90
20384;DHT22;46458;50.966;7.002;2022-07-23T11:09:30;33.70;99.90
20384;DHT22;46458;50.966;7.002;2022-07-23T11:15:08;37.80;90.30
20384;DHT22;46458;50.966;7.002;2022-07-23T11:25:14;30.00;99.20
20384;DHT22;46458;50.966;7.002;2022-07-23T11:28:09;29.50;99.20
20384;DHT22;46458;50.966;7.002;2022-07-23T11:30:39;28.90;99.90
20384;DHT22;46458;50.966;7.002;2022-07-23T11:35:36;28.50;99.90
20384;DHT22;46458;50.966;7.002;2022-07-23T11:38:27;28.50;99.90
20384;DHT22;46458;50.966;7.002;2022-07-23T11:40:54;28.50;99.90
20384;DHT22;46458;50.966;7.002;2022-07-23T11:43:20;28.60;99.90
20384;DHT22;46458;50.966;7.002;2022-07-23T11:45:50;30.10;99.90
20384;DHT22;46458;50.966;7.002;2022-07-23T11:48:28;33.80;96.60
20384;DHT22;46458;50.966;7.002;2022-07-23T11:50:55;34.60;94.30
20384;DHT22;46458;50.966;7.002;2022-07-23T11:53:26;32.60;95.10
20384;DHT22;46458;50.966;7.002;2022-07-23T11:55:53;31.10;95.50
20384;DHT22;46458;50.966;7.002;2022-07-23T11:58:20;30.60;96.70
20384;DHT22;46458;50.966;7.002;2022-07-23T12:00:47;31.30;95.30
20384;DHT22;46458;50.966;7.002;2022-07-23T12:03:12;30.80;95.50
20384;DHT22;46458;50.966;7.002;2022-07-23T12:05:39;30.60;96.60
20384;DHT22;46458;50.966;7.002;2022-07-23T12:08:07;30.80;96.00
20384;DHT22;46458;50.966;7.002;2022-07-23T12:10:42;29.60;98.10
20384;DHT22;46458;50.966;7.002;2022-07-23T12:13:10;29.50;97.40
20384;DHT22;46458;50.966;7.002;2022-07-23T12:18:10;28.50;99.00
20384;DHT22;46458;50.966;7.002;2022-07-23T12:20:41;28.30;99.40
20384;DHT22;46458;50.966;7.002;2022-07-23T12:23:09;28.10;99.90
20384;DHT22;46458;50.966;7.002;2022-07-23T12:25:37;27.90;99.80
20384;DHT22;46458;50.966;7.002;2022-07-23T12:28:09;27.70;99.20
20384;DHT22;46458;50.966;7.002;2022-07-23T12:30:55;27.60;99.90
20384;DHT22;46458;50.966;7.002;2022-07-23T12:35:48;27.30;99.90
20384;DHT22;46458;50.966;7.002;2022-07-23T12:38:19;27.30;99.90
20384;DHT22;46458;50.966;7.002;2022-07-23T12:40:49;27.30;99.90
20384;DHT22;46458;50.966;7.002;2022-07-23T12:43:23;27.20;99.90
20384;DHT22;46458;50.966;7.002;2022-07-23T12:48:19;27.10;99.90
20384;DHT22;46458;50.966;7.002;2022-07-23T12:53:36;27.10;99.90
20384;DHT22;46458;50.966;7.002;2022-07-23T12:58:48;27.00;99.90
20384;DHT22;46458;50.966;7.002;2022-07-23T13:06:25;27.10;99.90
20384;DHT22;46458;50.966;7.002;2022-07-23T13:08:51;27.30;99.90
20384;DHT22;46458;50.966;7.002;2022-07-23T13:11:20;27.80;99.90
20384;DHT22;46458;50.966;7.002;2022-07-23T13:13:46;28.20;99.90
20384;DHT22;46458;50.966;7.002;2022-07-23T13:16:11;28.60;99.90
20384;DHT22;46458;50.966;7.002;2022-07-23T13:18:37;28.50;99.90
20384;DHT22;46458;50.966;7.002;2022-07-23T13:21:03;28.40;99.70
20384;DHT22;46458;50.966;7.002;2022-07-23T13:23:29;28.20;99.90
20384;DHT22;46458;50.966;7.002;2022-07-23T13:25:54;28.00;99.90
20384;DHT22;46458;50.966;7.002;2022-07-23T13:28:21;27.90;99.90
20384;DHT22;46458;50.966;7.002;2022-07-23T13:30:48;27.80;99.90
20384;DHT22;46458;50.966;7.002;2022-07-23T13:33:16;27.70;99.90
20384;DHT22;46458;50.966;7.002;2022-07-23T13:35:42;27.60;99.90
20384;DHT22;46458;50.966;7.002;2022-07-23T13:38:08;27.60;99.90
20384;DHT22;46458;50.966;7.002;2022-07-23T13:40:40;27.60;99.90
20384;DHT22;46458;50.966;7.002;2022-07-23T13:43:11;27.40;99.90
20384;DHT22;46458;50.966;7.002;2022-07-23T13:45:38;27.40;99.90
20384;DHT22;46458;50.966;7.002;2022-07-23T13:48:04;27.70;99.90
20384;DHT22;46458;50.966;7.002;2022-07-23T13:50:30;27.60;99.90
20384;DHT22;46458;50.966;7.002;2022-07-23T13:52:56;27.60;99.90
20384;DHT22;46458;50.966;7.002;2022-07-23T13:55:22;27.60;99.90
20384;DHT22;46458;50.966;7.002;2022-07-23T13:57:48;27.80;99.50
20384;DHT22;46458;50.966;7.002;2022-07-23T14:00:13;28.10;99.90
20384;DHT22;46458;50.966;7.002;2022-07-23T14:02:40;28.40;99.90
20384;DHT22;46458;50.966;7.002;2022-07-23T14:05:08;28.50;99.90
20384;DHT22;46458;50.966;7.002;2022-07-23T14:07:34;28.20;99.80
20384;DHT22;46458;50.966;7.002;2022-07-23T14:10:00;28.10;99.90
20384;DHT22;46458;50.966;7.002;2022-07-23T14:12:26;28.20;99.60
20384;DHT22;46458;50.966;7.002;2022-07-23T14:14:52;28.50;99.50
20384;DHT22;46458;50.966;7.002;2022-07-23T14:17:18;28.60;99.00
20384;DHT22;46458;50.966;7.002;2022-07-23T14:19:43;29.00;99.50
20384;DHT22;46458;50.966;7.002;2022-07-23T14:22:09;29.10;99.70
20384;DHT22;46458;50.966;7.002;2022-07-23T14:24:35;29.30;98.90
20384;DHT22;46458;50.966;7.002;2022-07-23T14:27:02;29.50;99.10
20384;DHT22;46458;50.966;7.002;2022-07-23T14:29:28;29.60;98.90
20384;DHT22;46458;50.966;7.002;2022-07-23T14:31:53;29.60;97.50
20384;DHT22;46458;50.966;7.002;2022-07-23T14:34:19;29.80;97.40
20384;DHT22;46458;50.966;7.002;2022-07-23T14:36:44;29.80;97.60
20384;DHT22;46458;50.966;7.002;2022-07-23T14:39:10;29.90;97.80
20384;DHT22;46458;50.966;7.002;2022-07-23T14:41:37;30.00;97.40
20384;DHT22;46458;50.966;7.002;2022-07-23T14:44:09;30.00;97.20
20384;DHT22;46458;50.966;7.002;2022-07-23T14:46:35;30.00;97.70
20384;DHT22;46458;50.966;7.002;2022-07-23T14:49:00;30.00;97.50
20384;DHT22;46458;50.966;7.002;2022-07-23T14:51:26;30.00;98.20
20384;DHT22;46458;50.966;7.002;2022-07-23T14:53:52;30.00;97.50
20384;DHT22;46458;50.966;7.002;2022-07-23T14:56:18;30.00;97.10
20384;DHT22;46458;50.966;7.002;2022-07-23T14:58:44;30.00;96.80
20384;DHT22;46458;50.966;7.002;2022-07-23T15:01:09;29.90;97.60
20384;DHT22;46458;50.966;7.002;2022-07-23T15:03:35;29.80;98.10
20384;DHT22;46458;50.966;7.002;2022-07-23T15:06:01;29.90;97.40
20384;DHT22;46458;50.966;7.002;2022-07-23T15:08:26;30.00;98.10
20384;DHT22;46458;50.966;7.002;2022-07-23T15:10:52;30.00;97.40
20384;DHT22;46458;50.966;7.002;2022-07-23T15:13:17;30.00;97.50
20384;DHT22;46458;50.966;7.002;2022-07-23T15:15:43;29.90;97.70
20384;DHT22;46458;50.966;7.002;2022-07-23T15:18:09;29.90;97.70
20384;DHT22;46458;50.966;7.002;2022-07-23T15:20:35;29.80;98.00
20384;DHT22;46458;50.966;7.002;2022-07-23T15:23:02;29.80;97.40
20384;DHT22;46458;50.966;7.002;2022-07-23T15:25:28;29.60;97.60
20384;DHT22;46458;50.966;7.002;2022-07-23T15:27:59;29.60;98.00
20384;DHT22;46458;50.966;7.002;2022-07-23T15:30:25;29.60;97.20
20384;DHT22;46458;50.966;7.002;2022-07-23T15:32:54;29.50;96.70
20384;DHT22;46458;50.966;7.002;2022-07-23T15:35:20;29.40;97.00
20384;DHT22;46458;50.966;7.002;2022-07-23T15:37:46;29.40;97.60
20384;DHT22;46458;50.966;7.002;2022-07-23T15:40:12;29.30;97.70
20384;DHT22;46458;50.966;7.002;2022-07-23T15:42:38;29.30;97.30
20384;DHT22;46458;50.966;7.002;2022-07-23T15:45:04;29.30;97.40
20384;DHT22;46458;50.966;7.002;2022-07-23T15:47:30;29.20;97.20
20384;DHT22;46458;50.966;7.002;2022-07-23T15:49:56;29.20;96.90
20384;DHT22;46458;50.966;7.002;2022-07-23T15:52:22;29.10;97.20
20384;DHT22;46458;50.966;7.002;2022-07-23T15:54:47;29.10;97.90
20384;DHT22;46458;50.966;7.002;2022-07-23T15:57:13;29.00;97.30
20384;DHT22;46458;50.966;7.002;2022-07-23T15:59:39;29.00;97.80
20384;DHT22;46458;50.966;7.002;2022-07-23T16:02:08;28.90;97.10
20384;DHT22;46458;50.966;7.002;2022-07-23T16:04:34;28.80;97.20
20384;DHT22;46458;50.966;7.002;2022-07-23T16:06:59;28.80;97.80
20384;DHT22;46458;50.966;7.002;2022-07-23T16:09:25;28.70;98.80
20384;DHT22;46458;50.966;7.002;2022-07-23T16:11:51;28.80;98.60
20384;DHT22;46458;50.966;7.002;2022-07-23T16:14:18;28.90;98.30
20384;DHT22;46458;50.966;7.002;2022-07-23T16:16:44;29.00;98.00
20384;DHT22;46458;50.966;7.002;2022-07-23T16:19:10;29.00;97.60
20384;DHT22;46458;50.966;7.002;2022-07-23T16:21:35;29.00;97.20
20384;DHT22;46458;50.966;7.002;2022-07-23T16:24:01;28.90;97.40
20384;DHT22;46458;50.966;7.002;2022-07-23T16:26:30;28.80;97.30
20384;DHT22;46458;50.966;7.002;2022-07-23T16:28:55;28.70;97.20
20384;DHT22;46458;50.966;7.002;2022-07-23T16:31:21;28.70;97.40